createdAt,value
2018-02-22T00:01:01.112Z,56.13
2018-02-22T00:02:03.587Z,49.67
2018-02-22T00:03:06.094Z,66.50
2018-02-22T00:04:08.582Z,56.72
2018-02-22T00:05:11.060Z,58.08
2018-02-22T00:06:13.550Z,57.22
2018-02-22T00:07:16.036Z,57.75
2018-02-22T00:08:18.511Z,56.47
2018-02-22T00:09:21.006Z,53.83
2018-02-22T00:10:23.490Z,62.80
2018-02-22T00:11:25.998Z,59.10
2018-02-22T00:12:28.485Z,55.42
2018-02-22T00:13:30.974Z,58.38
2018-02-22T00:14:33.472Z,55.05
2018-02-22T00:15:35.961Z,68.85
2018-02-22T00:16:38.475Z,54.20
2018-02-22T00:17:40.981Z,51.70
2018-02-22T00:18:43.455Z,57.65
2018-02-22T00:19:45.936Z,60.38
2018-02-22T00:20:48.411Z,62.15
2018-02-22T00:21:50.929Z,57.25
2018-02-22T00:22:53.421Z,58.55
2018-02-22T00:23:55.905Z,53.67
2018-02-22T00:24:58.459Z,57.62
2018-02-22T00:26:00.953Z,56.85
2018-02-22T00:27:03.464Z,56.37
2018-02-22T00:28:05.948Z,59.30
2018-02-22T00:29:08.461Z,51.40
2018-02-22T00:30:10.946Z,59.13
2018-02-22T00:31:13.515Z,52.40
2018-02-22T00:32:15.993Z,58.85
2018-02-22T00:33:18.463Z,55.12
2018-02-22T00:34:20.953Z,52.03
2018-02-22T00:35:23.432Z,52.95
2018-02-22T00:36:25.951Z,53.40
2018-02-22T00:37:28.465Z,54.53
2018-02-22T00:38:31.684Z,61.92
2018-02-22T00:39:34.163Z,62.92
2018-02-22T00:40:36.647Z,56.42
2018-02-22T00:41:39.143Z,47.83
2018-02-22T00:42:41.656Z,56.95
2018-02-22T00:43:44.149Z,51.65
2018-02-22T00:44:46.628Z,59.25
2018-02-22T00:45:49.106Z,60.90
2018-02-22T00:46:51.594Z,57.40
2018-02-22T00:47:54.079Z,58.87
2018-02-22T00:48:56.566Z,56.67
2018-02-22T00:49:59.043Z,58.70
2018-02-22T00:51:01.534Z,56.65
2018-02-22T00:52:04.006Z,55.47
2018-02-22T00:53:06.507Z,54.08
2018-02-22T00:54:09.007Z,52.20
2018-02-22T00:55:11.497Z,59.58
2018-02-22T00:56:13.993Z,54.50
2018-02-22T00:57:16.494Z,54.67
2018-02-22T00:58:19.011Z,58.13
2018-02-22T00:59:21.484Z,54.72
2018-02-22T01:00:23.981Z,57.95
2018-02-22T01:01:26.458Z,54.88
2018-02-22T01:02:28.935Z,58.83
2018-02-22T01:03:31.421Z,62.25
2018-02-22T01:04:33.922Z,58.70
2018-02-22T01:05:36.413Z,56.80
2018-02-22T01:06:38.908Z,58.72
2018-02-22T01:07:41.405Z,53.30
2018-02-22T01:08:43.896Z,57.53
2018-02-22T01:09:46.387Z,57.67
2018-02-22T01:10:48.868Z,59.85
2018-02-22T01:11:51.791Z,65.53
2018-02-22T01:12:54.271Z,64.65
2018-02-22T01:13:56.759Z,66.28
2018-02-22T01:14:59.245Z,70.40
2018-02-22T01:16:01.737Z,61.30
2018-02-22T01:17:04.220Z,56.03
2018-02-22T01:18:06.703Z,58.05
2018-02-22T01:19:09.201Z,59.10
2018-02-22T01:20:11.698Z,54.10
2018-02-22T01:21:14.173Z,64.32
2018-02-22T01:22:16.694Z,58.90
2018-02-22T01:23:19.167Z,51.53
2018-02-22T01:24:21.665Z,59.42
2018-02-22T01:25:24.154Z,64.70
2018-02-22T01:26:26.652Z,54.28
2018-02-22T01:27:29.141Z,52.67
2018-02-22T01:28:31.619Z,59.35
2018-02-22T01:29:34.113Z,57.62
2018-02-22T01:30:36.601Z,55.33
2018-02-22T01:31:39.083Z,58.20
2018-02-22T01:32:41.585Z,53.83
2018-02-22T01:33:44.081Z,59.88
2018-02-22T01:34:46.586Z,56.75
2018-02-22T01:35:49.067Z,61.15
2018-02-22T01:36:51.556Z,56.00
2018-02-22T01:37:54.035Z,60.75
2018-02-22T01:38:56.507Z,58.08
2018-02-22T01:39:59.000Z,53.47
2018-02-22T01:41:01.485Z,65.45
2018-02-22T01:42:03.963Z,60.22
2018-02-22T01:43:06.457Z,56.03
2018-02-22T01:44:08.962Z,56.95
2018-02-22T01:45:11.443Z,53.75
2018-02-22T01:46:13.943Z,62.20
2018-02-22T01:47:16.432Z,48.53
2018-02-22T01:48:18.903Z,60.63
2018-02-22T01:49:21.401Z,57.17
2018-02-22T01:50:23.894Z,55.72
2018-02-22T01:51:26.381Z,57.80
2018-02-22T01:52:28.870Z,57.00
2018-02-22T01:53:31.356Z,57.97
2018-02-22T01:54:33.837Z,58.92
2018-02-22T01:55:36.329Z,53.87
2018-02-22T01:56:38.807Z,60.42
2018-02-22T01:57:41.297Z,54.75
2018-02-22T01:58:43.786Z,58.00
2018-02-22T01:59:46.263Z,49.83
2018-02-22T02:00:48.762Z,55.70
2018-02-22T02:01:51.253Z,58.60
2018-02-22T02:02:53.746Z,53.45
2018-02-22T02:03:56.234Z,56.65
2018-02-22T02:04:58.732Z,59.13
2018-02-22T02:06:01.206Z,57.17
2018-02-22T02:07:03.703Z,55.90
2018-02-22T02:08:06.187Z,59.10
2018-02-22T02:09:08.676Z,51.97
2018-02-22T02:10:11.161Z,53.70
2018-02-22T02:11:13.643Z,57.45
2018-02-22T02:12:16.129Z,50.05
2018-02-22T02:13:18.607Z,54.85
2018-02-22T02:14:21.097Z,48.40
2018-02-22T02:15:23.584Z,54.72
2018-02-22T02:16:26.080Z,55.40
2018-02-22T02:17:28.569Z,49.25
2018-02-22T02:18:31.895Z,48.22
2018-02-22T02:19:34.385Z,52.88
2018-02-22T02:20:36.860Z,58.03
2018-02-22T02:21:39.339Z,52.40
2018-02-22T02:22:41.825Z,53.97
2018-02-22T02:23:44.317Z,51.70
2018-02-22T02:24:46.790Z,58.60
2018-02-22T02:25:49.279Z,53.47
2018-02-22T02:26:51.751Z,56.03
2018-02-22T02:27:59.859Z,56.85
2018-02-22T02:29:02.345Z,50.85
2018-02-22T02:30:04.833Z,58.58
2018-02-22T02:31:07.303Z,49.08
2018-02-22T02:32:09.792Z,55.10
2018-02-22T02:33:12.281Z,55.00
2018-02-22T02:34:14.762Z,49.10
2018-02-22T02:35:17.238Z,56.85
2018-02-22T02:36:19.725Z,51.97
2018-02-22T02:37:22.221Z,51.53
2018-02-22T02:38:24.709Z,50.72
2018-02-22T02:39:27.207Z,48.85
2018-02-22T02:40:29.707Z,49.92
2018-02-22T02:41:32.206Z,58.97
2018-02-22T02:42:34.676Z,44.08
2018-02-22T02:43:37.166Z,42.88
2018-02-22T02:44:39.651Z,47.85
2018-02-22T02:45:42.150Z,50.75
2018-02-22T02:46:44.623Z,42.83
2018-02-22T02:47:47.120Z,47.20
2018-02-22T02:48:49.598Z,45.03
2018-02-22T02:49:52.068Z,54.70
2018-02-22T02:50:54.567Z,44.60
2018-02-22T02:51:57.072Z,45.45
2018-02-22T02:52:59.569Z,48.75
2018-02-22T02:54:02.039Z,55.70
2018-02-22T02:55:04.520Z,48.55
2018-02-22T02:56:07.020Z,49.00
2018-02-22T02:57:09.491Z,47.38
2018-02-22T02:58:11.978Z,50.15
2018-02-22T02:59:14.472Z,49.90
2018-02-22T03:00:16.949Z,46.33
2018-02-22T03:01:19.427Z,46.28
2018-02-22T03:02:21.918Z,54.13
2018-02-22T03:03:24.404Z,52.85
2018-02-22T03:04:26.885Z,49.20
2018-02-22T03:05:29.379Z,43.13
2018-02-22T03:06:31.850Z,52.62
2018-02-22T03:07:34.345Z,48.03
2018-02-22T03:08:36.837Z,50.30
2018-02-22T03:09:39.319Z,42.20
2018-02-22T03:10:41.804Z,45.38
2018-02-22T03:11:44.279Z,48.38
2018-02-22T03:12:46.770Z,44.60
2018-02-22T03:13:49.249Z,47.78
2018-02-22T03:14:51.741Z,45.15
2018-02-22T03:15:54.237Z,48.80
2018-02-22T03:16:56.715Z,50.17
2018-02-22T03:17:59.206Z,48.70
2018-02-22T03:19:01.693Z,49.47
2018-02-22T03:20:04.171Z,46.90
2018-02-22T03:21:06.669Z,45.88
2018-02-22T03:22:09.168Z,46.05
2018-02-22T03:23:11.651Z,49.30
2018-02-22T03:24:14.128Z,45.90
2018-02-22T03:25:16.621Z,48.55
2018-02-22T03:26:19.099Z,45.92
2018-02-22T03:27:21.600Z,43.38
2018-02-22T03:28:24.094Z,44.80
2018-02-22T03:29:26.580Z,43.63
2018-02-22T03:30:29.078Z,48.33
2018-02-22T03:31:31.552Z,49.28
2018-02-22T03:32:34.049Z,52.97
2018-02-22T03:33:36.541Z,41.10
2018-02-22T03:34:39.066Z,52.72
2018-02-22T03:35:41.559Z,50.47
2018-02-22T03:36:44.040Z,44.90
2018-02-22T03:37:46.521Z,40.33
2018-02-22T03:38:48.999Z,51.33
2018-02-22T03:39:51.477Z,42.90
2018-02-22T03:40:53.966Z,40.55
2018-02-22T03:41:56.528Z,43.95
2018-02-22T03:42:59.004Z,49.50
2018-02-22T03:44:01.476Z,42.80
2018-02-22T03:45:03.967Z,42.50
2018-02-22T03:46:06.507Z,38.13
2018-02-22T03:47:08.970Z,41.70
2018-02-22T03:48:11.443Z,48.33
2018-02-22T03:49:13.945Z,45.70
2018-02-22T03:50:16.433Z,43.35
2018-02-22T03:51:18.910Z,43.60
2018-02-22T03:52:21.397Z,51.37
2018-02-22T03:53:23.897Z,44.83
2018-02-22T03:54:26.412Z,39.97
2018-02-22T03:55:28.891Z,49.15
2018-02-22T03:56:31.377Z,42.60
2018-02-22T03:57:33.870Z,44.85
2018-02-22T03:58:36.371Z,43.80
2018-02-22T03:59:38.863Z,46.30
2018-02-22T04:00:41.349Z,48.65
2018-02-22T04:01:43.841Z,43.00
2018-02-22T04:02:46.334Z,42.10
2018-02-22T04:03:48.823Z,40.20
2018-02-22T04:04:51.299Z,45.35
2018-02-22T04:05:53.809Z,46.28
2018-02-22T04:06:56.302Z,43.35
2018-02-22T04:07:58.775Z,45.17
2018-02-22T04:09:01.251Z,42.15
2018-02-22T04:10:03.727Z,43.33
2018-02-22T04:11:06.203Z,45.47
2018-02-22T04:12:08.721Z,47.70
2018-02-22T04:13:11.209Z,45.70
2018-02-22T04:14:13.687Z,42.85
2018-02-22T04:15:16.172Z,47.22
2018-02-22T04:16:18.651Z,44.58
2018-02-22T04:17:21.136Z,41.90
2018-02-22T04:18:23.613Z,39.88
2018-02-22T04:19:26.105Z,45.12
2018-02-22T04:20:29.499Z,50.08
2018-02-22T04:21:31.972Z,40.30
2018-02-22T04:22:34.446Z,43.45
2018-02-22T04:23:36.943Z,41.08
2018-02-22T04:24:39.425Z,43.85
2018-02-22T04:25:41.921Z,41.22
2018-02-22T04:26:44.395Z,47.80
2018-02-22T04:27:46.885Z,48.47
2018-02-22T04:28:49.375Z,45.25
2018-02-22T04:29:51.857Z,46.97
2018-02-22T04:30:54.426Z,45.15
2018-02-22T04:31:56.921Z,41.15
2018-02-22T04:32:59.395Z,43.63
2018-02-22T04:34:01.874Z,43.55
2018-02-22T04:35:04.369Z,42.50
2018-02-22T04:36:06.842Z,42.67
2018-02-22T04:37:09.338Z,48.90
2018-02-22T04:38:11.829Z,48.72
2018-02-22T04:39:14.303Z,39.50
2018-02-22T04:40:16.797Z,42.20
2018-02-22T04:41:19.271Z,45.53
2018-02-22T04:42:21.761Z,40.78
2018-02-22T04:43:24.247Z,39.92
2018-02-22T04:44:26.732Z,40.40
2018-02-22T04:45:29.207Z,40.08
2018-02-22T04:46:31.709Z,40.53
2018-02-22T04:47:34.210Z,41.13
2018-02-22T04:48:36.706Z,38.53
2018-02-22T04:49:39.201Z,35.25
2018-02-22T04:50:41.705Z,38.55
2018-02-22T04:51:44.179Z,34.40
2018-02-22T04:52:46.657Z,39.40
2018-02-22T04:53:49.126Z,39.00
2018-02-22T04:54:51.614Z,41.03
2018-02-22T04:55:54.104Z,36.30
2018-02-22T04:56:56.596Z,40.88
2018-02-22T04:57:59.081Z,39.78
2018-02-22T04:59:01.573Z,41.42
2018-02-22T05:00:04.062Z,44.70
2018-02-22T05:01:06.553Z,40.97
2018-02-22T05:02:09.033Z,39.63
2018-02-22T05:03:11.521Z,38.20
2018-02-22T05:04:14.019Z,42.75
2018-02-22T05:05:16.510Z,38.35
2018-02-22T05:06:19.008Z,40.67
2018-02-22T05:07:21.497Z,45.75
2018-02-22T05:08:23.991Z,46.88
2018-02-22T05:09:26.477Z,38.67
2018-02-22T05:10:28.949Z,44.40
2018-02-22T05:11:31.445Z,39.95
2018-02-22T05:12:33.953Z,40.83
2018-02-22T05:13:36.446Z,44.13
2018-02-22T05:14:38.973Z,38.08
2018-02-22T05:15:41.494Z,41.97
2018-02-22T05:16:43.981Z,42.67
2018-02-22T05:17:46.454Z,40.10
2018-02-22T05:18:49.791Z,39.30
2018-02-22T05:19:52.297Z,39.03
2018-02-22T05:20:54.780Z,41.55
2018-02-22T05:21:57.252Z,34.28
2018-02-22T05:22:59.745Z,37.60
2018-02-22T05:24:02.235Z,36.85
2018-02-22T05:25:04.722Z,33.10
2018-02-22T05:26:07.209Z,40.00
2018-02-22T05:27:09.716Z,39.35
2018-02-22T05:28:12.213Z,37.20
2018-02-22T05:29:14.701Z,34.88
2018-02-22T05:30:17.204Z,33.65
2018-02-22T05:31:19.676Z,35.53
2018-02-22T05:32:22.165Z,34.80
2018-02-22T05:33:24.711Z,38.60
2018-02-22T05:34:27.183Z,45.40
2018-02-22T05:35:29.670Z,39.55
2018-02-22T05:36:32.148Z,35.92
2018-02-22T05:37:34.627Z,41.30
2018-02-22T05:38:37.112Z,40.03
2018-02-22T05:39:39.631Z,34.78
2018-02-22T05:40:42.103Z,41.25
2018-02-22T05:41:44.597Z,34.20
2018-02-22T05:42:47.088Z,37.20
2018-02-22T05:43:49.563Z,39.78
2018-02-22T05:44:52.076Z,38.53
2018-02-22T05:45:54.552Z,40.53
2018-02-22T05:46:57.040Z,42.47
2018-02-22T05:47:59.571Z,33.45
2018-02-22T05:49:02.047Z,36.40
2018-02-22T05:50:04.538Z,40.17
2018-02-22T05:51:07.014Z,37.67
2018-02-22T05:52:09.509Z,35.90
2018-02-22T05:53:12.005Z,38.50
2018-02-22T05:54:14.497Z,32.17
2018-02-22T05:55:17.106Z,39.53
2018-02-22T05:56:19.578Z,32.53
2018-02-22T05:57:22.103Z,40.15
2018-02-22T05:58:24.598Z,38.42
2018-02-22T05:59:27.076Z,34.30
2018-02-22T06:00:29.575Z,35.85
2018-02-22T06:01:32.067Z,35.83
2018-02-22T06:02:34.571Z,40.50
2018-02-22T06:03:37.277Z,36.13
2018-02-22T06:04:39.796Z,39.63
2018-02-22T06:05:42.286Z,36.85
2018-02-22T06:06:44.770Z,33.40
2018-02-22T06:07:47.312Z,33.72
2018-02-22T06:08:49.743Z,31.73
2018-02-22T06:09:52.310Z,34.25
2018-02-22T06:10:54.871Z,36.83
2018-02-22T06:11:57.346Z,36.60
2018-02-22T06:12:59.869Z,34.10
2018-02-22T06:14:02.376Z,26.48
2018-02-22T06:15:04.849Z,33.85
2018-02-22T06:16:07.366Z,31.95
2018-02-22T06:17:09.929Z,34.47
2018-02-22T06:18:12.414Z,35.42
2018-02-22T06:19:14.887Z,34.78
2018-02-22T06:20:17.377Z,30.23
2018-02-22T06:21:19.864Z,29.35
2018-02-22T06:22:22.361Z,30.15
2018-02-22T06:23:24.835Z,32.15
2018-02-22T06:24:27.336Z,33.13
2018-02-22T06:25:29.835Z,31.35
2018-02-22T06:26:32.352Z,32.28
2018-02-22T06:27:34.827Z,33.00
2018-02-22T06:28:37.304Z,26.20
2018-02-22T06:29:39.826Z,35.97
2018-02-22T06:30:42.313Z,30.27
2018-02-22T06:31:44.848Z,26.08
2018-02-22T06:32:47.319Z,28.00
2018-02-22T06:33:49.788Z,31.67
2018-02-22T06:34:52.274Z,28.83
2018-02-22T06:35:54.982Z,27.90
2018-02-22T06:36:57.479Z,28.30
2018-02-22T06:37:59.953Z,26.90
2018-02-22T06:39:02.449Z,34.72
2018-02-22T06:40:05.010Z,27.33
2018-02-22T06:41:07.484Z,32.15
2018-02-22T06:42:09.977Z,28.48
2018-02-22T06:43:12.469Z,32.08
2018-02-22T06:44:15.080Z,32.75
2018-02-22T06:45:17.551Z,27.05
2018-02-22T06:46:20.046Z,27.70
2018-02-22T06:47:22.545Z,34.78
2018-02-22T06:48:25.023Z,30.37
2018-02-22T06:49:27.491Z,32.03
2018-02-22T06:50:29.967Z,27.62
2018-02-22T06:51:32.443Z,34.47
2018-02-22T06:52:34.919Z,32.10
2018-02-22T06:53:37.392Z,26.20
2018-02-22T06:54:39.918Z,29.27
2018-02-22T06:55:42.397Z,32.05
2018-02-22T06:56:44.882Z,27.55
2018-02-22T06:57:47.390Z,30.17
2018-02-22T06:58:49.868Z,28.15
2018-02-22T06:59:52.357Z,32.83
2018-02-22T07:00:54.843Z,31.23
2018-02-22T07:01:57.428Z,28.05
2018-02-22T07:02:59.988Z,24.73
2018-02-22T07:04:02.477Z,27.20
2018-02-22T07:05:04.969Z,32.13
2018-02-22T07:06:07.456Z,28.40
2018-02-22T07:07:09.932Z,29.45
2018-02-22T07:08:12.412Z,28.12
2018-02-22T07:09:14.888Z,28.20
2018-02-22T07:10:17.390Z,31.00
2018-02-22T07:11:19.868Z,30.27
2018-02-22T07:12:22.357Z,31.00
2018-02-22T07:13:24.895Z,34.05
2018-02-22T07:14:27.383Z,27.23
2018-02-22T07:15:29.856Z,29.05
2018-02-22T07:16:32.331Z,30.35
2018-02-22T07:17:34.807Z,27.37
2018-02-22T07:18:37.280Z,35.42
2018-02-22T07:19:39.760Z,33.20
2018-02-22T07:20:42.244Z,31.20
2018-02-22T07:21:44.715Z,28.85
2018-02-22T07:22:47.192Z,27.25
2018-02-22T07:23:49.685Z,24.52
2018-02-22T07:24:52.155Z,23.27
2018-02-22T07:25:54.627Z,29.00
2018-02-22T07:26:57.114Z,26.77
2018-02-22T07:27:59.602Z,28.20
2018-02-22T07:29:02.093Z,28.30
2018-02-22T07:30:04.612Z,24.33
2018-02-22T07:31:07.102Z,27.37
2018-02-22T07:32:09.578Z,32.75
2018-02-22T07:33:12.047Z,23.38
2018-02-22T07:34:15.404Z,26.45
2018-02-22T07:35:17.851Z,21.83
2018-02-22T07:36:20.351Z,30.17
2018-02-22T07:37:22.845Z,26.73
2018-02-22T07:38:25.325Z,27.85
2018-02-22T07:39:27.814Z,25.65
2018-02-22T07:40:30.291Z,27.02
2018-02-22T07:41:32.767Z,24.67
2018-02-22T07:42:35.253Z,25.00
2018-02-22T07:43:37.733Z,26.77
2018-02-22T07:44:40.215Z,27.95
2018-02-22T07:45:42.721Z,22.48
2018-02-22T07:46:45.205Z,26.95
2018-02-22T07:47:47.693Z,23.73
2018-02-22T07:48:50.178Z,27.23
2018-02-22T07:49:52.657Z,32.28
2018-02-22T07:50:55.141Z,26.60
2018-02-22T07:51:57.607Z,23.42
2018-02-22T07:53:00.081Z,27.23
2018-02-22T07:54:02.555Z,24.27
2018-02-22T07:55:05.046Z,28.48
2018-02-22T07:56:07.544Z,24.37
2018-02-22T07:57:10.031Z,21.48
2018-02-22T07:58:12.519Z,22.48
2018-02-22T07:59:14.988Z,24.23
2018-02-22T08:00:17.470Z,23.80
2018-02-22T08:01:20.133Z,25.02
2018-02-22T08:02:22.618Z,21.45
2018-02-22T08:03:25.392Z,20.37
2018-02-22T08:04:27.881Z,21.98
2018-02-22T08:05:30.357Z,20.17
2018-02-22T08:06:32.867Z,23.75
2018-02-22T08:07:35.343Z,18.05
2018-02-22T08:08:38.774Z,18.15
2018-02-22T08:09:41.268Z,21.25
2018-02-22T08:10:43.736Z,24.92
2018-02-22T08:11:46.219Z,17.27
2018-02-22T08:12:48.691Z,21.05
2018-02-22T08:13:51.155Z,21.42
2018-02-22T08:14:53.797Z,24.67
2018-02-22T08:15:56.275Z,20.65
2018-02-22T08:16:58.769Z,19.23
2018-02-22T08:18:01.246Z,22.50
2018-02-22T08:19:03.727Z,20.45
2018-02-22T08:20:06.207Z,18.42
2018-02-22T08:21:08.702Z,17.55
2018-02-22T08:22:11.202Z,24.77
2018-02-22T08:23:13.671Z,19.33
2018-02-22T08:24:16.142Z,16.80
2018-02-22T08:25:18.614Z,17.80
2018-02-22T08:26:21.097Z,29.25
2018-02-22T08:27:23.583Z,17.15
2018-02-22T08:28:26.066Z,19.25
2018-02-22T08:29:28.564Z,16.77
2018-02-22T08:30:31.030Z,18.37
2018-02-22T08:31:33.509Z,17.62
2018-02-22T08:32:35.995Z,19.50
2018-02-22T08:33:38.515Z,17.95
2018-02-22T08:34:40.971Z,15.05
2018-02-22T08:35:43.436Z,22.42
2018-02-22T08:36:45.932Z,16.37
2018-02-22T08:37:48.436Z,20.50
2018-02-22T08:38:50.907Z,15.80
2018-02-22T08:39:53.371Z,21.60
2018-02-22T08:40:55.861Z,16.12
2018-02-22T08:41:58.363Z,19.12
2018-02-22T08:43:00.833Z,26.75
2018-02-22T08:44:03.311Z,17.62
2018-02-22T08:45:05.820Z,18.92
2018-02-22T08:46:08.306Z,20.52
2018-02-22T08:47:10.776Z,23.40
2018-02-22T08:48:13.263Z,15.30
2018-02-22T08:49:15.773Z,19.40
2018-02-22T08:50:18.251Z,20.85
2018-02-22T08:51:20.718Z,16.20
2018-02-22T08:52:23.188Z,17.02
2018-02-22T08:53:25.746Z,23.33
2018-02-22T08:54:28.232Z,15.98
2018-02-22T08:55:31.637Z,15.50
2018-02-22T08:56:34.107Z,18.87
2018-02-22T08:57:36.582Z,15.25
2018-02-22T08:58:39.199Z,17.35
2018-02-22T08:59:41.681Z,17.58
2018-02-22T09:00:44.147Z,25.52
2018-02-22T09:01:46.634Z,23.15
2018-02-22T09:02:49.116Z,22.70
2018-02-22T09:03:51.596Z,22.17
2018-02-22T09:04:54.092Z,20.25
2018-02-22T09:05:56.556Z,17.90
2018-02-22T09:06:59.045Z,19.85
2018-02-22T09:08:01.526Z,19.67
2018-02-22T09:09:04.010Z,18.62
2018-02-22T09:10:06.782Z,19.90
2018-02-22T09:11:09.372Z,16.70
2018-02-22T09:12:11.875Z,19.67
2018-02-22T09:13:15.492Z,21.80
2018-02-22T09:14:17.963Z,17.50
2018-02-22T09:15:20.449Z,21.33
2018-02-22T09:16:22.990Z,25.52
2018-02-22T09:17:25.500Z,21.20
2018-02-22T09:18:27.988Z,20.10
2018-02-22T09:19:30.476Z,19.10
2018-02-22T09:20:32.981Z,17.83
2018-02-22T09:21:35.450Z,16.30
2018-02-22T09:22:37.929Z,15.80
2018-02-22T09:23:40.407Z,22.92
2018-02-22T09:24:42.871Z,21.10
2018-02-22T09:25:45.353Z,18.85
2018-02-22T09:26:47.833Z,22.37
2018-02-22T09:27:50.348Z,23.55
2018-02-22T09:28:52.825Z,19.42
2018-02-22T09:29:55.322Z,20.58
2018-02-22T09:30:57.813Z,19.90
2018-02-22T09:32:00.317Z,17.52
2018-02-22T09:33:02.825Z,16.67
2018-02-22T09:34:05.303Z,19.85
2018-02-22T09:35:07.780Z,18.83
2018-02-22T09:36:10.267Z,15.48
2018-02-22T09:37:12.755Z,19.48
2018-02-22T09:38:15.237Z,19.73
2018-02-22T09:39:17.749Z,20.90
2018-02-22T09:40:20.234Z,18.50
2018-02-22T09:41:22.722Z,20.65
2018-02-22T09:42:25.204Z,21.27
2018-02-22T09:43:27.682Z,20.55
2018-02-22T09:44:30.160Z,25.25
2018-02-22T09:45:32.651Z,18.48
2018-02-22T09:46:35.169Z,18.37
2018-02-22T09:47:37.653Z,19.23
2018-02-22T09:48:40.124Z,22.35
2018-02-22T09:49:42.628Z,20.33
2018-02-22T09:50:45.117Z,20.65
2018-02-22T09:51:47.605Z,17.00
2018-02-22T09:52:50.089Z,23.87
2018-02-22T09:53:52.581Z,19.05
2018-02-22T09:54:55.069Z,20.20
2018-02-22T09:55:57.557Z,18.02
2018-02-22T09:57:00.046Z,24.30
2018-02-22T09:58:02.520Z,24.00
2018-02-22T09:59:04.992Z,22.62
2018-02-22T10:00:07.482Z,21.85
2018-02-22T10:01:09.980Z,19.25
2018-02-22T10:02:12.467Z,20.48
2018-02-22T10:03:14.935Z,23.58
2018-02-22T10:04:17.427Z,21.20
2018-02-22T10:05:19.924Z,25.08
2018-02-22T10:06:22.403Z,20.55
2018-02-22T10:07:24.891Z,20.73
2018-02-22T10:08:27.373Z,25.15
2018-02-22T10:09:29.862Z,21.05
2018-02-22T10:10:32.432Z,18.33
2018-02-22T10:11:34.911Z,20.98
2018-02-22T10:12:37.414Z,21.45
2018-02-22T10:13:39.905Z,19.83
2018-02-22T10:14:42.379Z,17.83
2018-02-22T10:15:44.883Z,21.40
2018-02-22T10:16:47.370Z,22.73
2018-02-22T10:17:49.860Z,24.90
2018-02-22T10:18:52.397Z,20.70
2018-02-22T10:19:54.867Z,22.90
2018-02-22T10:20:57.340Z,19.80
2018-02-22T10:21:59.830Z,18.67
2018-02-22T10:23:02.324Z,20.40
2018-02-22T10:24:04.798Z,23.83
2018-02-22T10:25:07.291Z,18.50
2018-02-22T10:26:09.797Z,20.77
2018-02-22T10:27:12.268Z,23.40
2018-02-22T10:28:14.761Z,17.65
2018-02-22T10:29:17.245Z,22.13
2018-02-22T10:30:19.715Z,16.05
2018-02-22T10:31:22.196Z,17.02
2018-02-22T10:32:24.686Z,19.70
2018-02-22T10:33:27.216Z,17.20
2018-02-22T10:34:29.722Z,14.30
2018-02-22T10:35:32.215Z,22.35
2018-02-22T10:36:34.740Z,20.90
2018-02-22T10:37:37.236Z,14.90
2018-02-22T10:38:39.761Z,15.57
2018-02-22T10:39:42.243Z,13.25
2018-02-22T10:40:44.760Z,16.10
2018-02-22T10:41:47.256Z,14.70
2018-02-22T10:42:49.731Z,20.65
2018-02-22T10:43:52.223Z,18.05
2018-02-22T10:44:54.708Z,20.65
2018-02-22T10:45:57.216Z,18.15
2018-02-22T10:46:59.712Z,18.10
2018-02-22T10:48:02.191Z,16.40
2018-02-22T10:49:04.714Z,20.58
2018-02-22T10:50:07.266Z,17.45
2018-02-22T10:51:09.695Z,18.17
2018-02-22T10:52:12.642Z,13.10
2018-02-22T10:53:15.129Z,14.70
2018-02-22T10:54:17.622Z,17.35
2018-02-22T10:55:20.181Z,17.25
2018-02-22T10:56:22.661Z,13.88
2018-02-22T10:57:25.127Z,16.62
2018-02-22T10:58:27.717Z,15.55
2018-02-22T10:59:30.208Z,15.13
2018-02-22T11:00:38.372Z,18.08
2018-02-22T11:01:46.364Z,13.57
2018-02-22T11:02:52.683Z,15.07
2018-02-22T11:03:55.164Z,17.33
2018-02-22T11:04:57.845Z,12.93
2018-02-22T11:06:00.332Z,15.32
2018-02-22T11:07:02.817Z,15.98
2018-02-22T11:08:05.313Z,16.73
2018-02-22T11:09:07.802Z,22.17
2018-02-22T11:10:10.272Z,37.75
2018-02-22T11:11:12.762Z,17.23
2018-02-22T11:12:15.253Z,18.10
2018-02-22T11:13:17.736Z,18.83
2018-02-22T11:14:20.218Z,18.10
2018-02-22T11:15:22.723Z,14.48
2018-02-22T11:16:25.217Z,14.82
2018-02-22T11:17:27.711Z,18.02
2018-02-22T11:18:30.225Z,18.92
2018-02-22T11:19:32.695Z,18.77
2018-02-22T11:20:35.171Z,16.65
2018-02-22T11:21:37.656Z,15.40
2018-02-22T11:22:40.152Z,15.98
2018-02-22T11:23:42.680Z,16.55
2018-02-22T11:24:45.159Z,19.83
2018-02-22T11:25:47.650Z,17.40
2018-02-22T11:26:50.127Z,25.90
2018-02-22T11:27:52.625Z,17.45
2018-02-22T11:28:55.125Z,17.75
2018-02-22T11:29:57.595Z,15.45
2018-02-22T11:31:00.089Z,18.02
2018-02-22T11:32:02.576Z,15.43
2018-02-22T11:33:05.052Z,15.30
2018-02-22T11:34:07.544Z,17.62
2018-02-22T11:35:10.034Z,19.08
2018-02-22T11:36:12.504Z,14.80
2018-02-22T11:37:14.971Z,17.50
2018-02-22T11:38:17.458Z,16.08
2018-02-22T11:39:19.970Z,18.30
2018-02-22T11:40:22.448Z,12.93
2018-02-22T11:41:24.938Z,13.10
2018-02-22T11:42:27.433Z,15.88
2018-02-22T11:43:29.925Z,18.35
2018-02-22T11:44:32.436Z,18.58
2018-02-22T11:45:34.929Z,15.38
2018-02-22T11:46:37.399Z,16.08
2018-02-22T11:47:39.882Z,13.25
2018-02-22T11:48:42.360Z,12.82
2018-02-22T11:49:44.861Z,16.05
2018-02-22T11:50:47.335Z,13.13
2018-02-22T11:51:49.908Z,13.75
2018-02-22T11:52:52.355Z,19.05
2018-02-22T11:53:54.833Z,16.67
2018-02-22T11:54:57.322Z,17.17
2018-02-22T11:55:59.798Z,13.48
2018-02-22T11:57:02.289Z,14.02
2018-02-22T11:58:04.767Z,11.32
2018-02-22T11:59:07.486Z,17.48
2018-02-22T12:00:09.998Z,10.80
2018-02-22T12:01:12.711Z,16.50
2018-02-22T12:02:15.214Z,18.40
2018-02-22T12:03:17.694Z,13.05
2018-02-22T12:04:20.167Z,15.95
2018-02-22T12:05:22.666Z,11.60
2018-02-22T12:06:25.141Z,13.98
2018-02-22T12:07:27.633Z,12.88
2018-02-22T12:08:30.111Z,13.27
2018-02-22T12:09:32.615Z,12.00
2018-02-22T12:10:35.111Z,16.05
2018-02-22T12:11:37.602Z,13.57
2018-02-22T12:12:40.089Z,15.20
2018-02-22T12:13:42.630Z,19.83
2018-02-22T12:14:45.095Z,14.60
2018-02-22T12:15:47.598Z,10.27
2018-02-22T12:16:50.109Z,10.98
2018-02-22T12:17:52.578Z,11.27
2018-02-22T12:18:55.070Z,10.32
2018-02-22T12:19:57.562Z,12.90
2018-02-22T12:21:00.075Z,9.07
2018-02-22T12:22:02.547Z,9.00
2018-02-22T12:23:05.033Z,11.63
2018-02-22T12:24:07.529Z,13.75
2018-02-22T12:25:10.057Z,12.95
2018-02-22T12:26:12.616Z,12.40
2018-02-22T12:27:15.116Z,12.15
2018-02-22T12:28:17.605Z,12.27
2018-02-22T12:29:20.076Z,13.52
2018-02-22T12:30:22.554Z,8.68
2018-02-22T12:31:25.168Z,11.30
2018-02-22T12:32:27.677Z,11.57
2018-02-22T12:33:30.148Z,9.93
2018-02-22T12:34:32.622Z,12.85
2018-02-22T12:35:35.107Z,10.75
2018-02-22T12:36:37.609Z,9.05
2018-02-22T12:37:40.089Z,12.73
2018-02-22T12:38:42.581Z,12.80
2018-02-22T12:39:45.073Z,15.02
2018-02-22T12:40:47.561Z,9.35
2018-02-22T12:41:50.196Z,11.93
2018-02-22T12:42:52.702Z,10.90
2018-02-22T12:43:55.188Z,11.82
2018-02-22T12:44:57.670Z,8.25
2018-02-22T12:46:00.350Z,10.63
2018-02-22T12:47:02.914Z,9.50
2018-02-22T12:48:05.461Z,8.43
2018-02-22T12:49:07.945Z,15.98
2018-02-22T12:50:10.447Z,9.07
2018-02-22T12:51:13.444Z,13.40
2018-02-22T12:52:15.958Z,8.75
2018-02-22T12:53:18.477Z,9.35
2018-02-22T12:54:21.027Z,8.27
2018-02-22T12:55:23.642Z,10.38
2018-02-22T12:56:26.201Z,14.63
2018-02-22T12:57:28.729Z,8.80
2018-02-22T12:58:31.344Z,9.48
2018-02-22T12:59:33.852Z,12.48
2018-02-22T13:00:36.347Z,13.85
2018-02-22T13:01:38.834Z,11.12
2018-02-22T13:02:41.866Z,10.32
2018-02-22T13:03:44.354Z,17.60
2018-02-22T13:04:46.837Z,10.45
2018-02-22T13:05:49.320Z,10.23
2018-02-22T13:06:51.807Z,10.10
2018-02-22T13:07:54.338Z,9.70
2018-02-22T13:08:56.864Z,9.13
2018-02-22T13:09:59.342Z,9.93
2018-02-22T13:11:01.889Z,17.33
2018-02-22T13:12:04.383Z,9.05
2018-02-22T13:13:06.883Z,8.45
2018-02-22T13:14:09.355Z,12.45
2018-02-22T13:15:11.836Z,10.88
2018-02-22T13:16:14.315Z,11.57
2018-02-22T13:17:16.783Z,8.38
2018-02-22T13:18:19.290Z,19.35
2018-02-22T13:19:21.779Z,13.77
2018-02-22T13:20:24.247Z,11.27
2018-02-22T13:21:26.727Z,11.65
2018-02-22T13:22:29.206Z,9.93
2018-02-22T13:23:31.714Z,11.23
2018-02-22T13:24:34.189Z,11.18
2018-02-22T13:25:36.670Z,9.52
2018-02-22T13:26:39.183Z,8.13